sensor_id;sensor_type;location;lat;lon;timestamp;P1;durP1;ratioP1;P2;durP2;ratioP2
21181;SDS011;10749;46.296;7.524;2023-05-29T00:01:58;3.97;;;2.90;;
21181;SDS011;10749;46.296;7.524;2023-05-29T00:04:23;4.53;;;2.83;;
21181;SDS011;10749;46.296;7.524;2023-05-29T00:06:49;5.10;;;2.80;;
21181;SDS011;10749;46.296;7.524;2023-05-29T00:09:15;4.93;;;3.30;;
21181;SDS011;10749;46.296;7.524;2023-05-29T00:11:40;4.75;;;3.03;;
21181;SDS011;10749;46.296;7.524;2023-05-29T00:14:06;3.20;;;2.63;;
21181;SDS011;10749;46.296;7.524;2023-05-29T00:16:31;4.15;;;2.95;;
21181;SDS011;10749;46.296;7.524;2023-05-29T00:18:57;4.38;;;2.75;;
21181;SDS011;10749;46.296;7.524;2023-05-29T00:21:22;4.43;;;2.85;;
21181;SDS011;10749;46.296;7.524;2023-05-29T00:23:48;3.78;;;3.03;;
21181;SDS011;10749;46.296;7.524;2023-05-29T00:26:13;4.78;;;3.15;;
21181;SDS011;10749;46.296;7.524;2023-05-29T00:28:41;3.17;;;2.80;;
21181;SDS011;10749;46.296;7.524;2023-05-29T00:31:07;3.70;;;3.17;;
21181;SDS011;10749;46.296;7.524;2023-05-29T00:33:32;3.13;;;2.65;;
21181;SDS011;10749;46.296;7.524;2023-05-29T00:35:58;4.35;;;3.13;;
21181;SDS011;10749;46.296;7.524;2023-05-29T00:38:23;5.20;;;3.20;;
21181;SDS011;10749;46.296;7.524;2023-05-29T00:40:48;5.05;;;3.47;;
21181;SDS011;10749;46.296;7.524;2023-05-29T00:43:14;4.57;;;3.10;;
21181;SDS011;10749;46.296;7.524;2023-05-29T00:45:39;3.63;;;3.17;;
21181;SDS011;10749;46.296;7.524;2023-05-29T00:48:04;4.40;;;2.65;;
21181;SDS011;10749;46.296;7.524;2023-05-29T00:50:31;5.47;;;3.30;;
21181;SDS011;10749;46.296;7.524;2023-05-29T00:52:58;3.72;;;3.33;;
21181;SDS011;10749;46.296;7.524;2023-05-29T00:55:26;4.65;;;3.60;;
21181;SDS011;10749;46.296;7.524;2023-05-29T00:57:52;3.90;;;2.97;;
21181;SDS011;10749;46.296;7.524;2023-05-29T01:00:18;4.97;;;2.97;;
21181;SDS011;10749;46.296;7.524;2023-05-29T01:02:43;4.45;;;2.78;;
21181;SDS011;10749;46.296;7.524;2023-05-29T01:05:13;4.50;;;2.67;;
21181;SDS011;10749;46.296;7.524;2023-05-29T01:07:39;4.13;;;2.75;;
21181;SDS011;10749;46.296;7.524;2023-05-29T01:10:06;3.75;;;2.72;;
21181;SDS011;10749;46.296;7.524;2023-05-29T01:12:36;3.22;;;2.50;;
21181;SDS011;10749;46.296;7.524;2023-05-29T01:21:10;6.07;;;3.25;;
21181;SDS011;10749;46.296;7.524;2023-05-29T01:27:00;2.97;;;2.58;;
21181;SDS011;10749;46.296;7.524;2023-05-29T01:29:29;3.40;;;2.97;;
21181;SDS011;10749;46.296;7.524;2023-05-29T01:31:57;3.47;;;2.83;;
21181;SDS011;10749;46.296;7.524;2023-05-29T01:34:23;3.70;;;3.13;;
21181;SDS011;10749;46.296;7.524;2023-05-29T01:36:49;3.78;;;3.13;;
21181;SDS011;10749;46.296;7.524;2023-05-29T01:39:14;3.75;;;3.10;;
21181;SDS011;10749;46.296;7.524;2023-05-29T01:41:41;4.10;;;3.00;;
21181;SDS011;10749;46.296;7.524;2023-05-29T01:44:08;5.18;;;3.38;;
21181;SDS011;10749;46.296;7.524;2023-05-29T01:46:39;4.30;;;3.17;;
21181;SDS011;10749;46.296;7.524;2023-05-29T01:49:05;3.97;;;3.00;;
21181;SDS011;10749;46.296;7.524;2023-05-29T01:51:31;4.40;;;3.00;;
21181;SDS011;10749;46.296;7.524;2023-05-29T01:53:57;3.90;;;2.85;;
21181;SDS011;10749;46.296;7.524;2023-05-29T01:56:27;3.78;;;2.65;;
21181;SDS011;10749;46.296;7.524;2023-05-29T01:58:54;6.13;;;3.47;;
21181;SDS011;10749;46.296;7.524;2023-05-29T02:01:21;4.15;;;3.10;;
21181;SDS011;10749;46.296;7.524;2023-05-29T02:03:46;4.65;;;3.15;;
21181;SDS011;10749;46.296;7.524;2023-05-29T02:06:12;5.47;;;3.17;;
21181;SDS011;10749;46.296;7.524;2023-05-29T02:08:37;3.90;;;3.15;;
21181;SDS011;10749;46.296;7.524;2023-05-29T02:11:02;5.93;;;3.40;;
21181;SDS011;10749;46.296;7.524;2023-05-29T02:13:27;5.20;;;3.45;;
21181;SDS011;10749;46.296;7.524;2023-05-29T02:15:53;5.20;;;3.63;;
21181;SDS011;10749;46.296;7.524;2023-05-29T02:18:18;5.30;;;3.97;;
21181;SDS011;10749;46.296;7.524;2023-05-29T02:20:43;4.55;;;3.35;;
21181;SDS011;10749;46.296;7.524;2023-05-29T02:23:10;4.40;;;3.40;;
21181;SDS011;10749;46.296;7.524;2023-05-29T02:25:35;4.55;;;3.25;;
21181;SDS011;10749;46.296;7.524;2023-05-29T02:28:01;5.07;;;3.38;;
21181;SDS011;10749;46.296;7.524;2023-05-29T02:30:27;5.85;;;3.20;;
21181;SDS011;10749;46.296;7.524;2023-05-29T02:32:53;4.65;;;2.88;;
21181;SDS011;10749;46.296;7.524;2023-05-29T02:35:18;5.40;;;3.53;;
21181;SDS011;10749;46.296;7.524;2023-05-29T02:37:46;4.60;;;3.22;;
21181;SDS011;10749;46.296;7.524;2023-05-29T02:40:11;4.43;;;3.30;;
21181;SDS011;10749;46.296;7.524;2023-05-29T02:42:36;3.90;;;2.90;;
21181;SDS011;10749;46.296;7.524;2023-05-29T02:45:02;4.25;;;3.08;;
21181;SDS011;10749;46.296;7.524;2023-05-29T02:47:27;3.50;;;3.00;;
21181;SDS011;10749;46.296;7.524;2023-05-29T02:49:52;4.57;;;3.47;;
21181;SDS011;10749;46.296;7.524;2023-05-29T02:52:18;4.22;;;3.25;;
21181;SDS011;10749;46.296;7.524;2023-05-29T02:54:43;5.63;;;3.70;;
21181;SDS011;10749;46.296;7.524;2023-05-29T02:57:08;4.90;;;3.10;;
21181;SDS011;10749;46.296;7.524;2023-05-29T02:59:34;5.50;;;3.47;;
21181;SDS011;10749;46.296;7.524;2023-05-29T03:02:00;5.00;;;3.60;;
21181;SDS011;10749;46.296;7.524;2023-05-29T03:04:26;3.47;;;3.10;;
21181;SDS011;10749;46.296;7.524;2023-05-29T03:06:52;7.88;;;3.65;;
21181;SDS011;10749;46.296;7.524;2023-05-29T03:09:17;5.10;;;3.40;;
21181;SDS011;10749;46.296;7.524;2023-05-29T03:11:43;4.13;;;3.25;;
21181;SDS011;10749;46.296;7.524;2023-05-29T03:14:09;4.28;;;3.17;;
21181;SDS011;10749;46.296;7.524;2023-05-29T03:16:35;4.13;;;3.17;;
21181;SDS011;10749;46.296;7.524;2023-05-29T03:19:00;3.65;;;3.08;;
21181;SDS011;10749;46.296;7.524;2023-05-29T03:21:26;5.00;;;3.38;;
21181;SDS011;10749;46.296;7.524;2023-05-29T03:23:51;6.00;;;3.35;;
21181;SDS011;10749;46.296;7.524;2023-05-29T03:26:17;4.90;;;3.35;;
21181;SDS011;10749;46.296;7.524;2023-05-29T03:28:42;4.50;;;3.15;;
21181;SDS011;10749;46.296;7.524;2023-05-29T03:31:07;7.53;;;3.60;;
21181;SDS011;10749;46.296;7.524;2023-05-29T03:33:33;4.20;;;3.38;;
21181;SDS011;10749;46.296;7.524;2023-05-29T03:35:59;7.35;;;3.72;;
21181;SDS011;10749;46.296;7.524;2023-05-29T03:38:25;6.60;;;3.60;;
21181;SDS011;10749;46.296;7.524;2023-05-29T03:40:50;4.70;;;3.45;;
21181;SDS011;10749;46.296;7.524;2023-05-29T03:43:15;4.80;;;3.28;;
21181;SDS011;10749;46.296;7.524;2023-05-29T03:45:41;4.82;;;3.40;;
21181;SDS011;10749;46.296;7.524;2023-05-29T03:48:06;5.90;;;3.47;;
21181;SDS011;10749;46.296;7.524;2023-05-29T03:50:31;7.20;;;3.50;;
21181;SDS011;10749;46.296;7.524;2023-05-29T03:52:57;3.80;;;2.95;;
21181;SDS011;10749;46.296;7.524;2023-05-29T03:55:22;3.85;;;3.45;;
21181;SDS011;10749;46.296;7.524;2023-05-29T03:57:47;5.53;;;3.72;;
21181;SDS011;10749;46.296;7.524;2023-05-29T04:00:13;5.78;;;3.70;;
21181;SDS011;10749;46.296;7.524;2023-05-29T04:02:40;4.88;;;3.60;;
21181;SDS011;10749;46.296;7.524;2023-05-29T04:05:06;6.63;;;3.00;;
21181;SDS011;10749;46.296;7.524;2023-05-29T04:07:35;5.40;;;3.60;;
21181;SDS011;10749;46.296;7.524;2023-05-29T04:10:04;5.55;;;3.13;;
21181;SDS011;10749;46.296;7.524;2023-05-29T04:12:31;5.80;;;3.65;;
21181;SDS011;10749;46.296;7.524;2023-05-29T04:14:57;6.47;;;3.72;;
21181;SDS011;10749;46.296;7.524;2023-05-29T04:17:22;7.72;;;3.85;;
21181;SDS011;10749;46.296;7.524;2023-05-29T04:19:48;5.22;;;3.55;;
21181;SDS011;10749;46.296;7.524;2023-05-29T04:22:13;6.18;;;3.50;;
21181;SDS011;10749;46.296;7.524;2023-05-29T04:24:39;6.88;;;3.72;;
21181;SDS011;10749;46.296;7.524;2023-05-29T04:27:04;5.30;;;4.03;;
21181;SDS011;10749;46.296;7.524;2023-05-29T04:29:30;5.22;;;3.65;;
21181;SDS011;10749;46.296;7.524;2023-05-29T04:31:55;6.10;;;4.15;;
21181;SDS011;10749;46.296;7.524;2023-05-29T04:34:21;4.65;;;3.67;;
21181;SDS011;10749;46.296;7.524;2023-05-29T04:36:46;5.47;;;3.60;;
21181;SDS011;10749;46.296;7.524;2023-05-29T04:39:12;4.95;;;3.35;;
21181;SDS011;10749;46.296;7.524;2023-05-29T04:41:39;4.90;;;3.35;;
21181;SDS011;10749;46.296;7.524;2023-05-29T04:44:05;4.60;;;3.55;;
21181;SDS011;10749;46.296;7.524;2023-05-29T04:46:31;4.90;;;3.55;;
21181;SDS011;10749;46.296;7.524;2023-05-29T04:48:56;4.75;;;4.00;;
21181;SDS011;10749;46.296;7.524;2023-05-29T04:51:21;5.85;;;4.13;;
21181;SDS011;10749;46.296;7.524;2023-05-29T04:53:47;6.25;;;4.00;;
21181;SDS011;10749;46.296;7.524;2023-05-29T04:56:13;5.47;;;4.13;;
21181;SDS011;10749;46.296;7.524;2023-05-29T04:58:40;7.10;;;4.13;;
21181;SDS011;10749;46.296;7.524;2023-05-29T05:01:06;4.97;;;3.80;;
21181;SDS011;10749;46.296;7.524;2023-05-29T05:03:33;5.82;;;4.10;;
21181;SDS011;10749;46.296;7.524;2023-05-29T05:06:02;9.25;;;4.32;;
21181;SDS011;10749;46.296;7.524;2023-05-29T05:08:29;5.63;;;4.03;;
21181;SDS011;10749;46.296;7.524;2023-05-29T05:10:54;5.55;;;3.58;;
21181;SDS011;10749;46.296;7.524;2023-05-29T05:13:20;5.78;;;3.90;;
21181;SDS011;10749;46.296;7.524;2023-05-29T05:15:45;6.47;;;4.18;;
21181;SDS011;10749;46.296;7.524;2023-05-29T05:18:11;5.22;;;3.85;;
21181;SDS011;10749;46.296;7.524;2023-05-29T05:20:36;5.63;;;3.80;;
21181;SDS011;10749;46.296;7.524;2023-05-29T05:23:01;5.68;;;4.43;;
21181;SDS011;10749;46.296;7.524;2023-05-29T05:25:27;8.60;;;4.22;;
21181;SDS011;10749;46.296;7.524;2023-05-29T05:27:52;6.75;;;3.85;;
21181;SDS011;10749;46.296;7.524;2023-05-29T05:30:17;7.50;;;4.15;;
21181;SDS011;10749;46.296;7.524;2023-05-29T05:32:43;7.95;;;3.90;;
21181;SDS011;10749;46.296;7.524;2023-05-29T05:35:08;5.50;;;3.83;;
21181;SDS011;10749;46.296;7.524;2023-05-29T05:37:36;10.95;;;4.22;;
21181;SDS011;10749;46.296;7.524;2023-05-29T05:40:01;5.30;;;3.80;;
21181;SDS011;10749;46.296;7.524;2023-05-29T05:42:26;5.97;;;4.20;;
21181;SDS011;10749;46.296;7.524;2023-05-29T05:44:52;6.43;;;4.07;;
21181;SDS011;10749;46.296;7.524;2023-05-29T05:47:17;5.63;;;3.97;;
21181;SDS011;10749;46.296;7.524;2023-05-29T05:49:43;7.72;;;4.28;;
21181;SDS011;10749;46.296;7.524;2023-05-29T05:52:08;6.95;;;3.92;;
21181;SDS011;10749;46.296;7.524;2023-05-29T05:54:33;5.55;;;4.35;;
21181;SDS011;10749;46.296;7.524;2023-05-29T05:56:59;6.60;;;4.45;;
21181;SDS011;10749;46.296;7.524;2023-05-29T05:59:25;7.32;;;4.03;;
21181;SDS011;10749;46.296;7.524;2023-05-29T06:01:50;6.53;;;4.22;;
21181;SDS011;10749;46.296;7.524;2023-05-29T06:04:16;6.72;;;4.20;;
21181;SDS011;10749;46.296;7.524;2023-05-29T06:06:42;4.60;;;4.03;;
21181;SDS011;10749;46.296;7.524;2023-05-29T06:09:07;8.63;;;4.63;;
21181;SDS011;10749;46.296;7.524;2023-05-29T06:11:34;6.93;;;4.20;;
21181;SDS011;10749;46.296;7.524;2023-05-29T06:13:59;4.97;;;3.97;;
21181;SDS011;10749;46.296;7.524;2023-05-29T06:16:24;6.22;;;3.80;;
21181;SDS011;10749;46.296;7.524;2023-05-29T06:18:50;6.18;;;4.10;;
21181;SDS011;10749;46.296;7.524;2023-05-29T06:21:15;4.85;;;3.90;;
21181;SDS011;10749;46.296;7.524;2023-05-29T06:23:41;5.15;;;4.10;;
21181;SDS011;10749;46.296;7.524;2023-05-29T06:26:06;6.88;;;4.07;;
21181;SDS011;10749;46.296;7.524;2023-05-29T06:28:32;6.32;;;4.40;;
21181;SDS011;10749;46.296;7.524;2023-05-29T06:30:57;7.07;;;4.20;;
21181;SDS011;10749;46.296;7.524;2023-05-29T06:33:23;4.93;;;3.97;;
21181;SDS011;10749;46.296;7.524;2023-05-29T06:35:49;7.20;;;4.20;;
21181;SDS011;10749;46.296;7.524;2023-05-29T06:38:14;6.10;;;4.05;;
21181;SDS011;10749;46.296;7.524;2023-05-29T06:40:40;6.18;;;4.50;;
21181;SDS011;10749;46.296;7.524;2023-05-29T06:43:05;7.50;;;4.38;;
21181;SDS011;10749;46.296;7.524;2023-05-29T06:45:30;5.18;;;4.18;;
21181;SDS011;10749;46.296;7.524;2023-05-29T06:47:56;7.00;;;4.07;;
21181;SDS011;10749;46.296;7.524;2023-05-29T06:50:21;5.70;;;3.80;;
21181;SDS011;10749;46.296;7.524;2023-05-29T06:52:47;7.57;;;4.18;;
21181;SDS011;10749;46.296;7.524;2023-05-29T06:55:12;6.13;;;4.40;;
21181;SDS011;10749;46.296;7.524;2023-05-29T06:57:37;6.15;;;4.60;;
21181;SDS011;10749;46.296;7.524;2023-05-29T07:00:06;5.82;;;4.20;;
21181;SDS011;10749;46.296;7.524;2023-05-29T07:02:32;12.20;;;4.55;;
21181;SDS011;10749;46.296;7.524;2023-05-29T07:04:57;6.68;;;4.28;;
21181;SDS011;10749;46.296;7.524;2023-05-29T07:07:23;11.38;;;4.25;;
21181;SDS011;10749;46.296;7.524;2023-05-29T07:09:48;8.07;;;4.70;;
21181;SDS011;10749;46.296;7.524;2023-05-29T07:12:13;6.65;;;4.63;;
21181;SDS011;10749;46.296;7.524;2023-05-29T07:14:39;7.20;;;4.28;;
21181;SDS011;10749;46.296;7.524;2023-05-29T07:17:04;7.55;;;4.47;;
21181;SDS011;10749;46.296;7.524;2023-05-29T07:19:30;6.05;;;4.53;;
21181;SDS011;10749;46.296;7.524;2023-05-29T07:21:57;13.02;;;4.32;;
21181;SDS011;10749;46.296;7.524;2023-05-29T07:24:22;9.25;;;4.82;;
21181;SDS011;10749;46.296;7.524;2023-05-29T07:26:48;7.85;;;4.07;;
21181;SDS011;10749;46.296;7.524;2023-05-29T07:29:13;8.85;;;4.40;;
21181;SDS011;10749;46.296;7.524;2023-05-29T07:31:39;8.48;;;4.30;;
21181;SDS011;10749;46.296;7.524;2023-05-29T07:34:05;10.52;;;4.10;;
21181;SDS011;10749;46.296;7.524;2023-05-29T07:36:31;5.95;;;3.60;;
21181;SDS011;10749;46.296;7.524;2023-05-29T07:38:56;6.50;;;4.10;;
21181;SDS011;10749;46.296;7.524;2023-05-29T07:41:23;4.55;;;3.88;;
21181;SDS011;10749;46.296;7.524;2023-05-29T07:43:49;6.10;;;4.22;;
21181;SDS011;10749;46.296;7.524;2023-05-29T07:46:17;7.30;;;3.97;;
21181;SDS011;10749;46.296;7.524;2023-05-29T07:48:43;7.10;;;4.10;;
21181;SDS011;10749;46.296;7.524;2023-05-29T07:51:11;7.78;;;4.03;;
21181;SDS011;10749;46.296;7.524;2023-05-29T07:53:36;5.65;;;3.90;;
21181;SDS011;10749;46.296;7.524;2023-05-29T07:56:02;6.28;;;4.18;;
21181;SDS011;10749;46.296;7.524;2023-05-29T07:58:27;9.60;;;4.47;;
21181;SDS011;10749;46.296;7.524;2023-05-29T08:00:53;6.45;;;4.70;;
21181;SDS011;10749;46.296;7.524;2023-05-29T08:03:18;7.93;;;4.40;;
21181;SDS011;10749;46.296;7.524;2023-05-29T08:05:44;8.15;;;4.28;;
21181;SDS011;10749;46.296;7.524;2023-05-29T08:08:09;7.65;;;4.38;;
21181;SDS011;10749;46.296;7.524;2023-05-29T08:10:37;8.35;;;4.55;;
21181;SDS011;10749;46.296;7.524;2023-05-29T08:13:03;5.97;;;4.30;;
21181;SDS011;10749;46.296;7.524;2023-05-29T08:15:28;5.60;;;3.90;;
21181;SDS011;10749;46.296;7.524;2023-05-29T08:17:53;6.70;;;4.13;;
21181;SDS011;10749;46.296;7.524;2023-05-29T08:20:19;6.30;;;3.80;;
21181;SDS011;10749;46.296;7.524;2023-05-29T08:22:45;8.43;;;4.00;;
21181;SDS011;10749;46.296;7.524;2023-05-29T08:25:10;8.48;;;4.15;;
21181;SDS011;10749;46.296;7.524;2023-05-29T08:27:36;6.90;;;4.35;;
21181;SDS011;10749;46.296;7.524;2023-05-29T08:30:02;4.60;;;3.95;;
21181;SDS011;10749;46.296;7.524;2023-05-29T08:32:28;5.65;;;4.20;;
21181;SDS011;10749;46.296;7.524;2023-05-29T08:34:53;5.32;;;3.75;;
21181;SDS011;10749;46.296;7.524;2023-05-29T08:37:19;7.18;;;4.43;;
21181;SDS011;10749;46.296;7.524;2023-05-29T08:39:44;4.88;;;4.10;;
21181;SDS011;10749;46.296;7.524;2023-05-29T08:42:12;6.43;;;3.92;;
21181;SDS011;10749;46.296;7.524;2023-05-29T08:44:42;5.57;;;4.15;;
21181;SDS011;10749;46.296;7.524;2023-05-29T08:47:13;5.45;;;4.00;;
21181;SDS011;10749;46.296;7.524;2023-05-29T08:49:45;8.93;;;4.07;;
21181;SDS011;10749;46.296;7.524;2023-05-29T08:52:19;6.30;;;3.92;;
21181;SDS011;10749;46.296;7.524;2023-05-29T08:54:47;6.28;;;3.95;;
21181;SDS011;10749;46.296;7.524;2023-05-29T08:57:13;7.00;;;4.20;;
21181;SDS011;10749;46.296;7.524;2023-05-29T08:59:39;4.95;;;4.03;;
21181;SDS011;10749;46.296;7.524;2023-05-29T09:02:09;7.00;;;4.28;;
21181;SDS011;10749;46.296;7.524;2023-05-29T09:04:36;8.40;;;4.32;;
21181;SDS011;10749;46.296;7.524;2023-05-29T09:07:02;5.40;;;4.28;;
21181;SDS011;10749;46.296;7.524;2023-05-29T09:09:28;6.25;;;4.07;;
21181;SDS011;10749;46.296;7.524;2023-05-29T09:11:55;4.90;;;4.10;;
21181;SDS011;10749;46.296;7.524;2023-05-29T09:14:34;7.88;;;4.10;;
21181;SDS011;10749;46.296;7.524;2023-05-29T09:17:04;6.13;;;4.00;;
21181;SDS011;10749;46.296;7.524;2023-05-29T09:19:31;4.68;;;4.03;;
21181;SDS011;10749;46.296;7.524;2023-05-29T09:22:04;5.32;;;3.72;;
21181;SDS011;10749;46.296;7.524;2023-05-29T09:24:33;5.47;;;3.80;;
21181;SDS011;10749;46.296;7.524;2023-05-29T09:27:01;5.80;;;3.80;;
21181;SDS011;10749;46.296;7.524;2023-05-29T09:29:32;5.55;;;4.05;;
21181;SDS011;10749;46.296;7.524;2023-05-29T09:31:58;6.30;;;3.90;;
21181;SDS011;10749;46.296;7.524;2023-05-29T09:34:26;5.85;;;4.30;;
21181;SDS011;10749;46.296;7.524;2023-05-29T09:36:52;4.93;;;3.80;;
21181;SDS011;10749;46.296;7.524;2023-05-29T09:39:18;4.78;;;3.63;;
21181;SDS011;10749;46.296;7.524;2023-05-29T09:41:46;5.20;;;4.07;;
21181;SDS011;10749;46.296;7.524;2023-05-29T09:44:13;8.43;;;4.22;;
21181;SDS011;10749;46.296;7.524;2023-05-29T09:46:42;5.30;;;3.90;;
21181;SDS011;10749;46.296;7.524;2023-05-29T09:49:11;5.10;;;3.80;;
21181;SDS011;10749;46.296;7.524;2023-05-29T09:51:38;4.80;;;4.05;;
21181;SDS011;10749;46.296;7.524;2023-05-29T09:54:13;5.13;;;3.90;;
21181;SDS011;10749;46.296;7.524;2023-05-29T09:56:43;6.57;;;4.30;;
21181;SDS011;10749;46.296;7.524;2023-05-29T09:59:12;8.48;;;4.13;;
21181;SDS011;10749;46.296;7.524;2023-05-29T10:01:42;5.95;;;4.18;;
21181;SDS011;10749;46.296;7.524;2023-05-29T10:04:11;5.50;;;3.90;;
21181;SDS011;10749;46.296;7.524;2023-05-29T10:06:37;7.00;;;4.22;;
21181;SDS011;10749;46.296;7.524;2023-05-29T10:09:05;5.55;;;4.03;;
21181;SDS011;10749;46.296;7.524;2023-05-29T10:11:35;4.60;;;4.00;;
21181;SDS011;10749;46.296;7.524;2023-05-29T10:14:02;5.82;;;4.30;;
21181;SDS011;10749;46.296;7.524;2023-05-29T10:16:30;5.82;;;3.97;;
21181;SDS011;10749;46.296;7.524;2023-05-29T10:19:00;5.43;;;4.30;;
21181;SDS011;10749;46.296;7.524;2023-05-29T10:21:32;6.65;;;3.97;;
21181;SDS011;10749;46.296;7.524;2023-05-29T10:24:01;8.57;;;3.75;;
21181;SDS011;10749;46.296;7.524;2023-05-29T10:26:31;5.47;;;4.10;;
21181;SDS011;10749;46.296;7.524;2023-05-29T10:29:15;4.75;;;3.88;;
21181;SDS011;10749;46.296;7.524;2023-05-29T10:32:04;5.22;;;4.00;;
21181;SDS011;10749;46.296;7.524;2023-05-29T10:37:18;5.43;;;4.10;;
21181;SDS011;10749;46.296;7.524;2023-05-29T10:39:47;6.72;;;4.68;;
21181;SDS011;10749;46.296;7.524;2023-05-29T10:45:03;8.07;;;4.43;;
21181;SDS011;10749;46.296;7.524;2023-05-29T10:47:29;5.53;;;3.85;;
21181;SDS011;10749;46.296;7.524;2023-05-29T10:49:58;4.30;;;3.90;;
21181;SDS011;10749;46.296;7.524;2023-05-29T10:52:25;4.90;;;4.05;;
21181;SDS011;10749;46.296;7.524;2023-05-29T10:54:51;6.20;;;4.10;;
21181;SDS011;10749;46.296;7.524;2023-05-29T10:57:18;5.45;;;4.05;;
21181;SDS011;10749;46.296;7.524;2023-05-29T10:59:46;8.63;;;4.60;;
21181;SDS011;10749;46.296;7.524;2023-05-29T11:02:16;5.32;;;3.90;;
21181;SDS011;10749;46.296;7.524;2023-05-29T11:04:42;6.70;;;4.57;;
21181;SDS011;10749;46.296;7.524;2023-05-29T11:07:08;4.93;;;4.25;;
21181;SDS011;10749;46.296;7.524;2023-05-29T11:10:12;5.68;;;4.85;;
21181;SDS011;10749;46.296;7.524;2023-05-29T11:12:56;6.97;;;4.10;;
21181;SDS011;10749;46.296;7.524;2023-05-29T11:15:23;4.70;;;4.20;;
21181;SDS011;10749;46.296;7.524;2023-05-29T11:17:49;6.93;;;4.55;;
21181;SDS011;10749;46.296;7.524;2023-05-29T11:23:08;9.13;;;4.68;;
21181;SDS011;10749;46.296;7.524;2023-05-29T11:25:42;7.53;;;4.00;;
21181;SDS011;10749;46.296;7.524;2023-05-29T11:28:09;6.30;;;4.38;;
21181;SDS011;10749;46.296;7.524;2023-05-29T11:30:44;7.57;;;4.63;;
21181;SDS011;10749;46.296;7.524;2023-05-29T11:33:19;5.43;;;4.35;;
21181;SDS011;10749;46.296;7.524;2023-05-29T11:35:54;5.47;;;4.22;;
21181;SDS011;10749;46.296;7.524;2023-05-29T11:38:25;5.95;;;4.50;;
21181;SDS011;10749;46.296;7.524;2023-05-29T11:40:50;6.10;;;4.63;;
21181;SDS011;10749;46.296;7.524;2023-05-29T11:43:18;6.35;;;4.57;;
21181;SDS011;10749;46.296;7.524;2023-05-29T11:45:44;6.45;;;4.80;;
21181;SDS011;10749;46.296;7.524;2023-05-29T11:48:10;7.43;;;4.43;;
21181;SDS011;10749;46.296;7.524;2023-05-29T11:50:35;10.30;;;4.82;;
21181;SDS011;10749;46.296;7.524;2023-05-29T11:53:01;5.00;;;4.32;;
21181;SDS011;10749;46.296;7.524;2023-05-29T11:55:27;8.80;;;4.30;;
21181;SDS011;10749;46.296;7.524;2023-05-29T11:58:10;5.00;;;4.15;;
21181;SDS011;10749;46.296;7.524;2023-05-29T12:00:37;6.13;;;4.70;;
21181;SDS011;10749;46.296;7.524;2023-05-29T12:03:04;5.78;;;4.35;;
21181;SDS011;10749;46.296;7.524;2023-05-29T12:05:43;6.88;;;4.25;;
21181;SDS011;10749;46.296;7.524;2023-05-29T12:08:10;6.15;;;4.38;;
21181;SDS011;10749;46.296;7.524;2023-05-29T12:10:36;5.13;;;4.20;;
21181;SDS011;10749;46.296;7.524;2023-05-29T12:13:01;7.10;;;4.88;;
21181;SDS011;10749;46.296;7.524;2023-05-29T12:15:26;6.85;;;4.88;;
21181;SDS011;10749;46.296;7.524;2023-05-29T12:17:52;5.95;;;4.65;;
21181;SDS011;10749;46.296;7.524;2023-05-29T12:20:21;6.03;;;4.72;;
21181;SDS011;10749;46.296;7.524;2023-05-29T12:22:48;6.13;;;4.55;;
21181;SDS011;10749;46.296;7.524;2023-05-29T12:27:44;5.55;;;4.60;;
21181;SDS011;10749;46.296;7.524;2023-05-29T12:30:14;9.85;;;4.45;;
21181;SDS011;10749;46.296;7.524;2023-05-29T12:32:44;5.80;;;4.55;;
21181;SDS011;10749;46.296;7.524;2023-05-29T12:35:12;7.15;;;4.93;;
21181;SDS011;10749;46.296;7.524;2023-05-29T12:37:46;5.50;;;4.45;;
21181;SDS011;10749;46.296;7.524;2023-05-29T12:40:14;5.78;;;4.82;;
21181;SDS011;10749;46.296;7.524;2023-05-29T12:42:44;6.85;;;4.78;;
21181;SDS011;10749;46.296;7.524;2023-05-29T12:45:10;6.15;;;4.63;;
21181;SDS011;10749;46.296;7.524;2023-05-29T12:47:36;7.30;;;4.75;;
21181;SDS011;10749;46.296;7.524;2023-05-29T12:52:53;6.50;;;4.60;;
21181;SDS011;10749;46.296;7.524;2023-05-29T12:55:22;8.60;;;4.50;;
21181;SDS011;10749;46.296;7.524;2023-05-29T12:57:48;5.50;;;4.47;;
21181;SDS011;10749;46.296;7.524;2023-05-29T13:00:14;10.73;;;4.78;;
21181;SDS011;10749;46.296;7.524;2023-05-29T13:02:39;5.35;;;4.63;;
21181;SDS011;10749;46.296;7.524;2023-05-29T13:05:05;6.15;;;4.70;;
21181;SDS011;10749;46.296;7.524;2023-05-29T13:07:32;6.03;;;5.05;;
21181;SDS011;10749;46.296;7.524;2023-05-29T13:09:58;7.22;;;5.20;;
21181;SDS011;10749;46.296;7.524;2023-05-29T13:12:24;6.15;;;4.90;;
21181;SDS011;10749;46.296;7.524;2023-05-29T13:14:49;6.20;;;4.93;;
21181;SDS011;10749;46.296;7.524;2023-05-29T13:17:15;6.28;;;5.25;;
21181;SDS011;10749;46.296;7.524;2023-05-29T13:19:40;5.35;;;4.78;;
21181;SDS011;10749;46.296;7.524;2023-05-29T13:22:05;6.97;;;5.00;;
21181;SDS011;10749;46.296;7.524;2023-05-29T13:24:31;5.68;;;4.63;;
21181;SDS011;10749;46.296;7.524;2023-05-29T13:26:56;7.13;;;5.00;;
21181;SDS011;10749;46.296;7.524;2023-05-29T13:29:22;6.88;;;5.07;;
21181;SDS011;10749;46.296;7.524;2023-05-29T13:31:47;6.93;;;4.68;;
21181;SDS011;10749;46.296;7.524;2023-05-29T13:34:12;6.82;;;4.47;;
21181;SDS011;10749;46.296;7.524;2023-05-29T13:36:37;7.90;;;4.75;;
21181;SDS011;10749;46.296;7.524;2023-05-29T13:39:03;6.07;;;5.00;;
21181;SDS011;10749;46.296;7.524;2023-05-29T13:41:29;6.30;;;4.85;;
21181;SDS011;10749;46.296;7.524;2023-05-29T13:43:55;10.05;;;5.45;;
21181;SDS011;10749;46.296;7.524;2023-05-29T13:46:21;7.43;;;4.63;;
21181;SDS011;10749;46.296;7.524;2023-05-29T13:48:46;8.52;;;4.47;;
21181;SDS011;10749;46.296;7.524;2023-05-29T13:51:11;10.73;;;4.90;;
21181;SDS011;10749;46.296;7.524;2023-05-29T13:53:36;7.18;;;4.82;;
21181;SDS011;10749;46.296;7.524;2023-05-29T13:56:02;7.05;;;4.63;;
21181;SDS011;10749;46.296;7.524;2023-05-29T13:58:27;8.10;;;4.65;;
21181;SDS011;10749;46.296;7.524;2023-05-29T14:00:52;8.55;;;5.00;;
21181;SDS011;10749;46.296;7.524;2023-05-29T14:03:18;8.75;;;4.85;;
21181;SDS011;10749;46.296;7.524;2023-05-29T14:05:46;6.30;;;4.93;;
21181;SDS011;10749;46.296;7.524;2023-05-29T14:08:11;6.38;;;4.47;;
21181;SDS011;10749;46.296;7.524;2023-05-29T14:10:37;7.95;;;5.07;;
21181;SDS011;10749;46.296;7.524;2023-05-29T14:13:02;5.93;;;4.95;;
21181;SDS011;10749;46.296;7.524;2023-05-29T14:15:27;6.80;;;4.28;;
21181;SDS011;10749;46.296;7.524;2023-05-29T14:17:52;7.22;;;5.10;;
21181;SDS011;10749;46.296;7.524;2023-05-29T14:20:18;6.50;;;4.93;;
21181;SDS011;10749;46.296;7.524;2023-05-29T14:22:43;6.53;;;5.03;;
21181;SDS011;10749;46.296;7.524;2023-05-29T14:25:08;10.55;;;4.75;;
21181;SDS011;10749;46.296;7.524;2023-05-29T14:27:34;5.97;;;4.88;;
21181;SDS011;10749;46.296;7.524;2023-05-29T14:29:59;6.93;;;5.03;;
21181;SDS011;10749;46.296;7.524;2023-05-29T14:32:25;5.28;;;4.68;;
21181;SDS011;10749;46.296;7.524;2023-05-29T14:34:50;6.82;;;4.90;;
21181;SDS011;10749;46.296;7.524;2023-05-29T14:37:17;7.38;;;4.57;;
21181;SDS011;10749;46.296;7.524;2023-05-29T14:39:42;5.80;;;4.63;;
21181;SDS011;10749;46.296;7.524;2023-05-29T14:42:08;9.95;;;5.35;;
21181;SDS011;10749;46.296;7.524;2023-05-29T14:44:33;6.95;;;4.80;;
21181;SDS011;10749;46.296;7.524;2023-05-29T14:46:58;6.72;;;4.70;;
21181;SDS011;10749;46.296;7.524;2023-05-29T14:49:24;6.05;;;4.85;;
21181;SDS011;10749;46.296;7.524;2023-05-29T14:51:49;6.40;;;5.18;;
21181;SDS011;10749;46.296;7.524;2023-05-29T14:54:14;6.85;;;5.05;;
21181;SDS011;10749;46.296;7.524;2023-05-29T14:56:40;7.28;;;5.10;;
21181;SDS011;10749;46.296;7.524;2023-05-29T14:59:05;7.72;;;4.82;;
21181;SDS011;10749;46.296;7.524;2023-05-29T15:01:30;5.63;;;4.50;;
21181;SDS011;10749;46.296;7.524;2023-05-29T15:03:55;5.75;;;4.70;;
21181;SDS011;10749;46.296;7.524;2023-05-29T15:06:21;8.13;;;5.20;;
21181;SDS011;10749;46.296;7.524;2023-05-29T15:08:46;7.90;;;4.97;;